Time;durP1;ratioP1;P1;durP2;ratioP2;P2;SDS_P1;SDS_P2;PMS_P1;PMS_P2;Temp;Humidity;BMP_temperature;BMP_pressure;BME280_temperature;BME280_humidity;BME280_pressure;Samples;Min_cycle;Max_cycle;Signal;HPM_P1;HPM_P2
2023/08/15 00:00:39;;;;;;;11.33;7.83;;;;;;;;;;4911922;29;20238;-68
2023/08/15 00:03:06;;;;;;;11.33;7.40;;;;;;;;;;4912497;29;20202;-68
2023/08/15 00:05:33;;;;;;;9.77;7.67;;;;;;;;;;4909577;29;20251;-68
2023/08/15 00:07:59;;;;;;;11.10;8.13;;;;;;;;;;4900680;29;20270;-68
2023/08/15 00:10:26;;;;;;;8.63;7.07;;;;;;;;;;4913463;29;20559;-67
2023/08/15 00:12:53;;;;;;;11.57;7.30;;;;;;;;;;4892438;29;20291;-68
2023/08/15 00:15:19;;;;;;;9.53;7.10;;;;;;;;;;4909640;29;20209;-68
2023/08/15 00:17:46;;;;;;;12.13;7.37;;;;;;;;;;4909938;29;20199;-68
2023/08/15 00:20:13;;;;;;;14.30;7.27;;;;;;;;;;4909950;29;20200;-68
2023/08/15 00:22:39;;;;;;;9.43;7.10;;;;;;;;;;4910729;29;20197;-68
2023/08/15 00:25:06;;;;;;;15.80;8.17;;;;;;;;;;4911776;29;20560;-68
2023/08/15 00:27:33;;;;;;;19.30;8.73;;;;;;;;;;4908700;29;20199;-68
2023/08/15 00:30:00;;;;;;;48.60;11.10;;;;;;;;;;4893786;29;20255;-68
2023/08/15 00:32:31;;;;;;;33.10;10.67;;;;;;;;;;4910638;29;20774;-67
2023/08/15 00:34:58;;;;;;;32.93;10.63;;;;;;;;;;4910586;29;20195;-67
2023/08/15 00:37:24;;;;;;;31.00;10.07;;;;;;;;;;4893534;29;20698;-68
2023/08/15 00:39:51;;;;;;;29.87;11.03;;;;;;;;;;4919855;29;20196;-68
2023/08/15 00:42:35;;;;;;;33.47;10.20;;;;;;;;;;4892006;29;20195;-68
2023/08/15 00:45:02;;;;;;;20.43;9.47;;;;;;;;;;4909308;29;20558;-68
2023/08/15 00:47:46;;;;;;;23.93;9.73;;;;;;;;;;4917147;29;20190;-67
2023/08/15 00:50:13;;;;;;;26.67;9.00;;;;;;;;;;4915796;29;20210;-68
2023/08/15 00:52:40;;;;;;;18.50;8.50;;;;;;;;;;4921247;29;20199;-68
2023/08/15 00:55:07;;;;;;;19.87;8.87;;;;;;;;;;4896279;29;20207;-68
2023/08/15 00:57:34;;;;;;;14.20;9.00;;;;;;;;;;4906538;29;20207;-68
2023/08/15 01:00:00;;;;;;;13.53;9.00;;;;;;;;;;4895842;29;20200;-68
2023/08/15 01:02:27;;;;;;;15.03;8.87;;;;;;;;;;4893655;29;20263;-68
2023/08/15 01:04:54;;;;;;;16.87;8.93;;;;;;;;;;4922991;29;20246;-67
2023/08/15 01:07:21;;;;;;;16.30;8.83;;;;;;;;;;4896045;29;20219;-67
2023/08/15 01:09:48;;;;;;;15.17;8.63;;;;;;;;;;4897540;29;20199;-69
2023/08/15 01:48:01;;;;;;;12.00;7.77;;;;;;;;;;4910716;29;20186;-68
2023/08/15 01:50:28;;;;;;;10.87;7.63;;;;;;;;;;4883887;29;20678;-67
2023/08/15 01:52:55;;;;;;;16.57;8.30;;;;;;;;;;4915583;29;20829;-68
2023/08/15 01:55:22;;;;;;;12.30;8.70;;;;;;;;;;4895914;29;20681;-68
2023/08/15 01:57:49;;;;;;;12.90;8.60;;;;;;;;;;4917405;29;20223;-68
2023/08/15 02:00:15;;;;;;;11.17;8.53;;;;;;;;;;4902733;29;20943;-68
2023/08/15 02:02:42;;;;;;;13.17;7.43;;;;;;;;;;4912288;29;20243;-67
2023/08/15 02:05:26;;;;;;;11.80;7.80;;;;;;;;;;4911242;29;20183;-69
2023/08/15 02:07:53;;;;;;;15.30;8.47;;;;;;;;;;4910466;29;20221;-68
2023/08/15 02:10:19;;;;;;;12.53;8.37;;;;;;;;;;4912453;29;20274;-68
2023/08/15 02:12:47;;;;;;;12.73;8.67;;;;;;;;;;4897821;29;20213;-67
2023/08/15 02:15:14;;;;;;;14.03;9.17;;;;;;;;;;4896572;29;20229;-68
2023/08/15 02:17:59;;;;;;;12.83;8.43;;;;;;;;;;4900617;29;20740;-68
2023/08/15 02:20:25;;;;;;;11.30;8.40;;;;;;;;;;4912153;29;20290;-68
2023/08/15 02:22:52;;;;;;;10.33;8.33;;;;;;;;;;4900974;29;20209;-67
2023/08/15 02:25:19;;;;;;;12.60;8.33;;;;;;;;;;4914872;29;20996;-67
2023/08/15 02:27:46;;;;;;;10.70;8.50;;;;;;;;;;4912179;29;20199;-70
2023/08/15 02:30:13;;;;;;;11.87;8.60;;;;;;;;;;4910171;29;20259;-67
2023/08/15 02:32:40;;;;;;;11.13;8.60;;;;;;;;;;4908083;29;20203;-67
2023/08/15 02:35:09;;;;;;;11.77;8.60;;;;;;;;;;4910969;29;20207;-67
2023/08/15 02:37:36;;;;;;;12.13;8.67;;;;;;;;;;4910103;29;20270;-67
2023/08/15 02:40:05;;;;;;;11.50;8.50;;;;;;;;;;4893725;29;20191;-67
2023/08/15 02:42:33;;;;;;;10.23;8.10;;;;;;;;;;4894011;29;20227;-67
2023/08/15 02:44:59;;;;;;;11.30;8.73;;;;;;;;;;4898754;29;20252;-68
2023/08/15 02:47:26;;;;;;;13.10;8.90;;;;;;;;;;4902044;29;20203;-67
2023/08/15 02:49:53;;;;;;;12.07;8.87;;;;;;;;;;4919984;29;20207;-68
2023/08/15 02:52:20;;;;;;;14.40;8.73;;;;;;;;;;4893271;29;20602;-67
2023/08/15 02:54:46;;;;;;;11.80;8.93;;;;;;;;;;4911141;29;20199;-68
2023/08/15 02:57:13;;;;;;;11.90;9.13;;;;;;;;;;4910796;29;20591;-68
2023/08/15 02:59:40;;;;;;;14.20;8.90;;;;;;;;;;4908719;29;20283;-68
2023/08/15 03:02:06;;;;;;;13.87;9.10;;;;;;;;;;4897981;29;20260;-69
2023/08/15 03:04:33;;;;;;;11.20;8.30;;;;;;;;;;4918981;29;20263;-68
2023/08/15 03:07:00;;;;;;;14.77;8.50;;;;;;;;;;4909442;29;20199;-68
2023/08/15 03:09:27;;;;;;;11.70;7.80;;;;;;;;;;4901211;29;20213;-68
2023/08/15 03:11:53;;;;;;;13.27;8.20;;;;;;;;;;4877769;29;20579;-68
2023/08/15 03:14:20;;;;;;;13.57;8.63;;;;;;;;;;4912970;29;20295;-68
2023/08/15 03:16:47;;;;;;;11.77;7.90;;;;;;;;;;4913458;29;20201;-68
2023/08/15 03:19:14;;;;;;;11.97;7.87;;;;;;;;;;4911341;29;20286;-68
2023/08/15 03:21:41;;;;;;;11.43;8.10;;;;;;;;;;4917964;29;20229;-67
2023/08/15 03:24:07;;;;;;;12.23;8.73;;;;;;;;;;4904640;29;20238;-67
2023/08/15 03:26:35;;;;;;;9.83;7.87;;;;;;;;;;4897765;29;20591;-68
2023/08/15 03:29:02;;;;;;;13.50;8.37;;;;;;;;;;4912470;29;20191;-69
2023/08/15 03:31:29;;;;;;;12.53;8.33;;;;;;;;;;4909915;29;20298;-68
2023/08/15 03:33:57;;;;;;;10.17;7.70;;;;;;;;;;4905381;29;20317;-68
2023/08/15 03:36:24;;;;;;;11.60;7.87;;;;;;;;;;4893709;29;20200;-68
2023/08/15 03:38:52;;;;;;;11.20;8.07;;;;;;;;;;4893659;29;20207;-68
2023/08/15 03:41:19;;;;;;;11.60;7.90;;;;;;;;;;4894169;29;20215;-68
2023/08/15 03:43:45;;;;;;;12.63;9.60;;;;;;;;;;4911550;29;20638;-68
2023/08/15 03:46:12;;;;;;;13.03;8.63;;;;;;;;;;4910702;29;20215;-68
2023/08/15 03:48:41;;;;;;;11.60;8.17;;;;;;;;;;4925290;29;20923;-68
2023/08/15 03:51:07;;;;;;;12.13;9.83;;;;;;;;;;4923595;29;20187;-68
2023/08/15 03:53:38;;;;;;;12.73;8.53;;;;;;;;;;4908980;29;20224;-68
2023/08/15 03:56:04;;;;;;;10.17;8.47;;;;;;;;;;4901111;29;20294;-68
2023/08/15 03:58:32;;;;;;;12.63;8.40;;;;;;;;;;4899362;29;20206;-68
2023/08/15 04:00:58;;;;;;;11.70;8.07;;;;;;;;;;4892962;29;20208;-68
2023/08/15 04:03:25;;;;;;;10.57;7.73;;;;;;;;;;4893404;29;20264;-68
2023/08/15 04:05:52;;;;;;;12.33;8.50;;;;;;;;;;4891926;29;21006;-68
2023/08/15 04:08:19;;;;;;;12.20;9.23;;;;;;;;;;4901658;29;20238;-68
2023/08/15 04:10:46;;;;;;;12.20;8.90;;;;;;;;;;4913556;29;20234;-68
2023/08/15 04:13:17;;;;;;;10.80;8.67;;;;;;;;;;4878382;29;20201;-68
2023/08/15 04:15:44;;;;;;;11.33;8.40;;;;;;;;;;4912503;29;20762;-69
2023/08/15 04:18:11;;;;;;;15.80;9.87;;;;;;;;;;4895120;29;20270;-68
2023/08/15 04:20:39;;;;;;;12.00;8.67;;;;;;;;;;4895144;29;20207;-70
2023/08/15 04:23:07;;;;;;;12.67;8.53;;;;;;;;;;4881228;29;20583;-69
2023/08/15 04:25:33;;;;;;;12.10;8.80;;;;;;;;;;4893710;29;20204;-70
2023/08/15 04:28:01;;;;;;;12.03;9.33;;;;;;;;;;4894297;29;20263;-70
2023/08/15 04:30:29;;;;;;;13.37;8.67;;;;;;;;;;4882320;29;20200;-65
2023/08/15 04:32:58;;;;;;;11.10;9.00;;;;;;;;;;4890719;29;20199;-68
2023/08/15 04:35:26;;;;;;;14.93;8.63;;;;;;;;;;4905778;29;20973;-67
2023/08/15 04:37:53;;;;;;;12.90;9.33;;;;;;;;;;4881131;29;20207;-67
2023/08/15 04:40:29;;;;;;;12.17;8.47;;;;;;;;;;4893626;29;20868;-68
2023/08/15 04:43:14;;;;;;;9.93;8.37;;;;;;;;;;4897720;29;20306;-68
2023/08/15 04:45:43;;;;;;;11.30;9.40;;;;;;;;;;4894017;29;20192;-70
2023/08/15 04:48:12;;;;;;;11.87;9.40;;;;;;;;;;4896254;29;20214;-68
2023/08/15 04:50:39;;;;;;;11.93;8.87;;;;;;;;;;4875934;29;20208;-68
2023/08/15 04:53:06;;;;;;;14.40;9.77;;;;;;;;;;4928890;29;20191;-68
2023/08/15 04:55:34;;;;;;;16.60;9.63;;;;;;;;;;4910796;29;20254;-67
2023/08/15 04:58:01;;;;;;;12.73;9.30;;;;;;;;;;4898147;29;20203;-68
2023/08/15 05:00:31;;;;;;;14.50;9.20;;;;;;;;;;4879100;29;20221;-67
2023/08/15 05:03:02;;;;;;;11.50;8.40;;;;;;;;;;4891417;29;20577;-68
2023/08/15 05:05:29;;;;;;;14.97;9.00;;;;;;;;;;4910235;29;20220;-67
2023/08/15 05:07:56;;;;;;;14.00;9.23;;;;;;;;;;4909486;29;20199;-67
2023/08/15 05:10:23;;;;;;;11.77;9.17;;;;;;;;;;4892187;29;20266;-67
2023/08/15 05:12:50;;;;;;;13.30;9.37;;;;;;;;;;4892588;29;20211;-69
2023/08/15 05:15:17;;;;;;;13.63;9.37;;;;;;;;;;4876961;29;20206;-69
2023/08/15 05:17:45;;;;;;;13.27;9.27;;;;;;;;;;4909729;29;20369;-69
2023/08/15 05:20:12;;;;;;;12.20;8.90;;;;;;;;;;4890916;29;20199;-68
2023/08/15 05:22:39;;;;;;;12.97;9.07;;;;;;;;;;4908330;29;20211;-68
2023/08/15 05:25:06;;;;;;;11.97;9.13;;;;;;;;;;4909056;29;20281;-69
2023/08/15 05:27:38;;;;;;;12.90;9.07;;;;;;;;;;4881842;29;20195;-69
2023/08/15 05:30:05;;;;;;;13.60;9.03;;;;;;;;;;4882149;29;20895;-69
2023/08/15 05:32:32;;;;;;;13.03;9.00;;;;;;;;;;4905626;29;20295;-69
2023/08/15 05:34:59;;;;;;;10.87;8.37;;;;;;;;;;4882646;29;20303;-69
2023/08/15 05:37:26;;;;;;;14.50;8.60;;;;;;;;;;4877075;29;20319;-68
2023/08/15 05:39:54;;;;;;;13.63;8.67;;;;;;;;;;4925022;29;20540;-68
2023/08/15 05:42:21;;;;;;;13.53;7.23;;;;;;;;;;4896449;29;20286;-70
2023/08/15 05:44:48;;;;;;;10.67;6.93;;;;;;;;;;4892363;29;20191;-69
2023/08/15 05:47:32;;;;;;;13.53;7.43;;;;;;;;;;4909132;29;20988;-69
2023/08/15 05:50:00;;;;;;;8.87;6.93;;;;;;;;;;4896678;29;20200;-68
2023/08/15 05:52:27;;;;;;;8.80;6.67;;;;;;;;;;4894650;29;20202;-68
2023/08/15 05:54:54;;;;;;;14.60;7.10;;;;;;;;;;4903988;29;20643;-70
2023/08/15 05:57:21;;;;;;;9.93;6.37;;;;;;;;;;4859879;29;20195;-69
2023/08/15 06:00:06;;;;;;;11.43;6.40;;;;;;;;;;4905443;29;20215;-69
2023/08/15 06:02:38;;;;;;;8.13;6.00;;;;;;;;;;4908784;29;20226;-67
2023/08/15 06:05:05;;;;;;;10.20;6.13;;;;;;;;;;4912394;29;20209;-69
2023/08/15 06:07:32;;;;;;;8.53;6.33;;;;;;;;;;4913681;29;20195;-68
2023/08/15 06:09:59;;;;;;;10.40;6.57;;;;;;;;;;4915586;29;20237;-67
2023/08/15 06:12:44;;;;;;;8.23;6.10;;;;;;;;;;4910982;29;20187;-69
2023/08/15 06:15:10;;;;;;;7.87;6.53;;;;;;;;;;4910005;29;20188;-68
2023/08/15 06:17:38;;;;;;;7.30;6.30;;;;;;;;;;4907330;29;20192;-68
2023/08/15 06:20:06;;;;;;;12.30;6.07;;;;;;;;;;4891714;29;20215;-69
2023/08/15 06:22:33;;;;;;;7.63;5.73;;;;;;;;;;4907724;29;20224;-69
2023/08/15 06:25:00;;;;;;;8.97;5.93;;;;;;;;;;4910171;29;20196;-69
2023/08/15 06:27:27;;;;;;;8.80;5.77;;;;;;;;;;4903924;29;20191;-69
2023/08/15 06:29:54;;;;;;;6.73;5.80;;;;;;;;;;4908849;29;20259;-69
2023/08/15 06:32:27;;;;;;;8.13;5.50;;;;;;;;;;4905403;29;20292;-66
2023/08/15 06:34:53;;;;;;;7.80;5.77;;;;;;;;;;4882198;29;20240;-70
2023/08/15 06:37:20;;;;;;;7.37;5.67;;;;;;;;;;4890484;29;20204;-69
2023/08/15 06:39:47;;;;;;;5.30;4.63;;;;;;;;;;4907352;29;20196;-70
2023/08/15 06:42:14;;;;;;;7.20;4.20;;;;;;;;;;4889093;29;20216;-69
2023/08/15 06:44:43;;;;;;;6.80;4.10;;;;;;;;;;4883365;29;20207;-69
2023/08/15 06:47:10;;;;;;;7.13;3.90;;;;;;;;;;4914394;29;20663;-68
2023/08/15 06:49:37;;;;;;;7.33;4.20;;;;;;;;;;4914959;29;20635;-68
2023/08/15 06:52:04;;;;;;;7.17;4.43;;;;;;;;;;4906983;29;20282;-69
2023/08/15 06:54:48;;;;;;;5.87;4.43;;;;;;;;;;4908966;29;20183;-69
2023/08/15 06:57:15;;;;;;;5.83;4.40;;;;;;;;;;4912002;29;20202;-68
2023/08/15 06:59:42;;;;;;;4.43;3.97;;;;;;;;;;4891168;29;20192;-69
2023/08/15 07:02:11;;;;;;;6.30;4.30;;;;;;;;;;4909378;29;20219;-69
2023/08/15 07:04:40;;;;;;;10.07;4.40;;;;;;;;;;4908789;29;20191;-69
2023/08/15 07:07:07;;;;;;;4.57;4.10;;;;;;;;;;4904856;29;20829;-70
2023/08/15 07:09:35;;;;;;;5.57;4.40;;;;;;;;;;4903817;29;20195;-68
2023/08/15 07:12:05;;;;;;;5.57;4.40;;;;;;;;;;4912149;29;20205;-68
2023/08/15 07:14:32;;;;;;;5.87;4.20;;;;;;;;;;4903779;29;21026;-69
2023/08/15 07:17:00;;;;;;;6.67;4.07;;;;;;;;;;4905825;29;20266;-67
2023/08/15 07:19:27;;;;;;;5.53;3.93;;;;;;;;;;4905990;29;20199;-71
2023/08/15 07:21:54;;;;;;;6.20;4.23;;;;;;;;;;4885295;29;20294;-70
2023/08/15 07:24:21;;;;;;;5.43;4.00;;;;;;;;;;4902868;29;20919;-68
2023/08/15 07:26:48;;;;;;;4.67;4.27;;;;;;;;;;4891888;29;20199;-69
2023/08/15 07:29:15;;;;;;;6.63;4.00;;;;;;;;;;4912779;29;20191;-69
2023/08/15 07:31:41;;;;;;;6.87;4.80;;;;;;;;;;4900710;29;20733;-69
2023/08/15 07:34:08;;;;;;;5.50;5.00;;;;;;;;;;4893761;29;20191;-69
2023/08/15 07:36:36;;;;;;;6.13;4.83;;;;;;;;;;4897716;29;20290;-69
2023/08/15 07:39:03;;;;;;;7.17;4.50;;;;;;;;;;4893343;29;20203;-68
2023/08/15 07:41:30;;;;;;;6.77;4.93;;;;;;;;;;4892656;29;20274;-69
2023/08/15 07:43:57;;;;;;;6.47;4.97;;;;;;;;;;4913800;29;20223;-67
2023/08/15 07:46:24;;;;;;;6.43;4.77;;;;;;;;;;4909785;29;20271;-69
2023/08/15 07:48:51;;;;;;;7.70;5.43;;;;;;;;;;4908973;29;20187;-68
2023/08/15 07:51:17;;;;;;;6.20;5.33;;;;;;;;;;4906866;29;20204;-68
2023/08/15 07:53:44;;;;;;;7.23;5.33;;;;;;;;;;4909519;29;20274;-67
2023/08/15 07:56:11;;;;;;;6.10;5.50;;;;;;;;;;4913655;29;20203;-68
2023/08/15 07:58:38;;;;;;;5.87;5.27;;;;;;;;;;4913657;29;20708;-68
2023/08/15 08:01:06;;;;;;;10.33;5.73;;;;;;;;;;4881155;29;20207;-68
2023/08/15 08:03:33;;;;;;;10.37;5.50;;;;;;;;;;4912625;29;20227;-68
2023/08/15 08:06:00;;;;;;;7.40;5.47;;;;;;;;;;4896273;29;20591;-68
2023/08/15 08:08:31;;;;;;;6.23;5.57;;;;;;;;;;4912773;29;20222;-68
2023/08/15 08:10:58;;;;;;;8.40;6.00;;;;;;;;;;4910474;29;20239;-68
2023/08/15 08:13:42;;;;;;;6.33;5.73;;;;;;;;;;4909221;29;20194;-68
2023/08/15 08:16:09;;;;;;;11.03;6.23;;;;;;;;;;4912678;29;20242;-69
2023/08/15 08:18:36;;;;;;;6.63;5.90;;;;;;;;;;4911537;29;20195;-69
2023/08/15 08:21:05;;;;;;;7.63;6.23;;;;;;;;;;4913019;29;20221;-69
2023/08/15 08:23:32;;;;;;;6.53;5.90;;;;;;;;;;4910586;29;20305;-70
2023/08/15 08:25:59;;;;;;;6.87;5.90;;;;;;;;;;4895723;29;20671;-70
2023/08/15 08:28:26;;;;;;;7.70;6.33;;;;;;;;;;4913426;29;20203;-70
2023/08/15 08:30:52;;;;;;;9.07;6.60;;;;;;;;;;4901532;29;20962;-72
2023/08/15 08:33:20;;;;;;;8.67;6.43;;;;;;;;;;4906373;29;20207;-70
2023/08/15 08:35:47;;;;;;;7.53;6.13;;;;;;;;;;4902185;29;20267;-70
2023/08/15 08:38:14;;;;;;;6.67;5.83;;;;;;;;;;4907708;29;20198;-70
2023/08/15 08:40:42;;;;;;;9.10;6.17;;;;;;;;;;4912326;29;20196;-68
2023/08/15 08:43:09;;;;;;;8.43;5.97;;;;;;;;;;4896134;29;20234;-68
2023/08/15 08:45:37;;;;;;;7.23;6.30;;;;;;;;;;4902409;29;20781;-68
2023/08/15 08:48:05;;;;;;;8.03;6.77;;;;;;;;;;4897161;29;20575;-69
2023/08/15 08:50:32;;;;;;;8.90;6.23;;;;;;;;;;4896122;29;20218;-68
2023/08/15 08:52:59;;;;;;;9.40;6.90;;;;;;;;;;4895490;29;20210;-69
2023/08/15 08:55:26;;;;;;;8.87;7.00;;;;;;;;;;4912763;29;20626;-69
2023/08/15 08:57:53;;;;;;;8.47;7.00;;;;;;;;;;4894219;29;20757;-70
2023/08/15 09:00:26;;;;;;;8.73;7.43;;;;;;;;;;4894470;29;20199;-70
2023/08/15 09:02:53;;;;;;;8.73;6.90;;;;;;;;;;4894026;29;20215;-69
2023/08/15 09:05:20;;;;;;;9.60;7.47;;;;;;;;;;4909730;29;20214;-69
2023/08/15 09:07:48;;;;;;;10.63;7.37;;;;;;;;;;4912299;29;20647;-69
2023/08/15 09:10:14;;;;;;;10.03;7.60;;;;;;;;;;4894134;29;20235;-67
2023/08/15 09:12:43;;;;;;;9.97;6.97;;;;;;;;;;4897203;29;20203;-68
2023/08/15 09:15:10;;;;;;;7.73;6.93;;;;;;;;;;4914231;29;20191;-68
2023/08/15 09:17:40;;;;;;;7.80;7.10;;;;;;;;;;4897687;29;20282;-68
2023/08/15 09:20:16;;;;;;;11.20;7.37;;;;;;;;;;4890283;29;20198;-75
2023/08/15 09:22:45;;;;;;;11.63;7.83;;;;;;;;;;4890115;29;20536;-73
2023/08/15 09:25:13;;;;;;;8.27;7.37;;;;;;;;;;4892734;29;20263;-69
2023/08/15 09:27:41;;;;;;;9.33;7.30;;;;;;;;;;4914711;29;20183;-70
2023/08/15 09:30:11;;;;;;;9.20;6.60;;;;;;;;;;4914629;29;20211;-68
2023/08/15 09:32:38;;;;;;;10.47;7.17;;;;;;;;;;4914253;29;20195;-68
2023/08/15 09:35:05;;;;;;;9.30;7.17;;;;;;;;;;4913569;29;20210;-68
2023/08/15 09:37:32;;;;;;;8.27;7.47;;;;;;;;;;4911607;29;20794;-69
2023/08/15 09:40:16;;;;;;;9.50;7.57;;;;;;;;;;4910445;29;20195;-68
2023/08/15 09:42:44;;;;;;;7.67;6.70;;;;;;;;;;4928481;29;20214;-68
2023/08/15 09:45:28;;;;;;;9.50;6.17;;;;;;;;;;4933342;29;20645;-68
2023/08/15 09:47:55;;;;;;;6.77;5.70;;;;;;;;;;4900632;29;20191;-68
2023/08/15 09:50:22;;;;;;;7.87;6.00;;;;;;;;;;4916502;29;20205;-68
2023/08/15 09:52:48;;;;;;;8.07;6.00;;;;;;;;;;4916449;29;20305;-68
2023/08/15 09:55:18;;;;;;;6.33;5.70;;;;;;;;;;4932800;29;20698;-68
2023/08/15 09:57:45;;;;;;;6.73;4.77;;;;;;;;;;4933160;29;20195;-68
2023/08/15 10:00:13;;;;;;;9.13;5.10;;;;;;;;;;4928862;29;20318;-68
2023/08/15 10:02:48;;;;;;;5.03;4.50;;;;;;;;;;4913690;29;20229;-67
2023/08/15 10:05:17;;;;;;;6.80;4.97;;;;;;;;;;4913261;29;20202;-67
2023/08/15 10:07:43;;;;;;;8.03;5.10;;;;;;;;;;4914253;29;20195;-68
2023/08/15 10:10:10;;;;;;;7.13;4.80;;;;;;;;;;4896884;29;20279;-68
2023/08/15 10:12:54;;;;;;;6.60;4.90;;;;;;;;;;4913504;29;20179;-67
2023/08/15 10:15:21;;;;;;;5.77;3.53;;;;;;;;;;4913427;29;20187;-67
2023/08/15 10:17:48;;;;;;;5.73;3.20;;;;;;;;;;4895865;29;20588;-67
2023/08/15 10:20:16;;;;;;;3.90;3.13;;;;;;;;;;4896164;29;20286;-68
2023/08/15 10:22:43;;;;;;;5.30;3.30;;;;;;;;;;4933018;29;20654;-66
2023/08/15 10:25:22;;;;;;;7.80;3.40;;;;;;;;;;4932341;29;20199;-67
2023/08/15 10:27:50;;;;;;;6.03;3.47;;;;;;;;;;4932946;29;20191;-67
2023/08/15 10:30:40;;;;;;;6.27;3.30;;;;;;;;;;4932158;29;20191;-67
2023/08/15 10:33:13;;;;;;;4.03;3.57;;;;;;;;;;4932119;29;20221;-68
2023/08/15 10:35:55;;;;;;;5.30;3.57;;;;;;;;;;4932358;29;20191;-67
2023/08/15 10:38:26;;;;;;;4.13;3.50;;;;;;;;;;4919547;29;20204;-67
2023/08/15 10:41:15;;;;;;;5.00;3.23;;;;;;;;;;4913244;29;20199;-67
2023/08/15 10:43:47;;;;;;;6.37;4.07;;;;;;;;;;4894613;29;20247;-67
2023/08/15 10:46:15;;;;;;;3.87;3.50;;;;;;;;;;4893791;29;20203;-67
2023/08/15 10:48:42;;;;;;;5.87;3.57;;;;;;;;;;4877395;29;20636;-67
2023/08/15 10:51:26;;;;;;;4.33;3.67;;;;;;;;;;4910606;29;20206;-67
2023/08/15 10:53:56;;;;;;;5.63;4.10;;;;;;;;;;4895230;29;20188;-67
2023/08/15 10:56:28;;;;;;;4.33;3.63;;;;;;;;;;4912907;29;20207;-67
2023/08/15 10:58:56;;;;;;;4.00;3.50;;;;;;;;;;4913221;29;20243;-67
2023/08/15 11:01:23;;;;;;;4.87;3.83;;;;;;;;;;4912631;29;20215;-67
2023/08/15 11:03:51;;;;;;;4.43;3.57;;;;;;;;;;4913031;29;20231;-67
2023/08/15 11:06:17;;;;;;;8.87;4.20;;;;;;;;;;4912779;29;20198;-67
2023/08/15 11:08:44;;;;;;;5.17;3.50;;;;;;;;;;4912974;29;20543;-67
2023/08/15 11:11:11;;;;;;;4.90;3.03;;;;;;;;;;4894595;29;20337;-68
2023/08/15 11:13:41;;;;;;;4.70;3.07;;;;;;;;;;4929502;29;20278;-67
2023/08/15 11:16:08;;;;;;;4.93;3.23;;;;;;;;;;4931426;29;20199;-67
2023/08/15 11:18:35;;;;;;;5.30;3.10;;;;;;;;;;4931276;29;20226;-67
2023/08/15 11:21:02;;;;;;;3.00;2.80;;;;;;;;;;4931495;29;20265;-67
2023/08/15 11:23:29;;;;;;;5.07;3.33;;;;;;;;;;4931665;29;20207;-67
2023/08/15 11:26:04;;;;;;;4.73;3.13;;;;;;;;;;4914488;29;20195;-67
2023/08/15 11:28:31;;;;;;;5.67;3.20;;;;;;;;;;4931315;29;20954;-67
2023/08/15 11:30:58;;;;;;;5.33;3.80;;;;;;;;;;4917393;29;20282;-68
2023/08/15 11:33:34;;;;;;;6.13;3.40;;;;;;;;;;4895205;29;20293;-67
2023/08/15 11:36:01;;;;;;;5.60;3.63;;;;;;;;;;4912563;29;20199;-67
2023/08/15 11:38:28;;;;;;;6.33;3.27;;;;;;;;;;4912644;29;20203;-67
2023/08/15 11:40:59;;;;;;;3.50;3.20;;;;;;;;;;4895287;29;20236;-67
2023/08/15 11:43:43;;;;;;;4.37;3.33;;;;;;;;;;4912516;29;20296;-67
2023/08/15 11:46:10;;;;;;;5.67;3.57;;;;;;;;;;4895455;29;20195;-67
2023/08/15 11:48:37;;;;;;;5.63;3.20;;;;;;;;;;4912174;29;20209;-67
2023/08/15 11:51:05;;;;;;;8.93;3.47;;;;;;;;;;4897828;29;20198;-67
2023/08/15 11:53:32;;;;;;;6.13;3.50;;;;;;;;;;4931091;29;20834;-67
2023/08/15 11:55:58;;;;;;;5.03;3.30;;;;;;;;;;4888979;29;20558;-69
2023/08/15 11:58:32;;;;;;;4.30;3.10;;;;;;;;;;4880083;29;20263;-68
2023/08/15 12:01:03;;;;;;;5.73;3.30;;;;;;;;;;4912203;29;20247;-67
2023/08/15 12:03:30;;;;;;;6.10;3.60;;;;;;;;;;4894301;29;20211;-67
2023/08/15 12:05:58;;;;;;;4.07;3.30;;;;;;;;;;4907922;29;20208;-68
2023/08/15 12:08:28;;;;;;;4.63;3.53;;;;;;;;;;4912186;29;20199;-67
2023/08/15 12:10:55;;;;;;;4.27;3.30;;;;;;;;;;4895907;29;20231;-67
2023/08/15 12:13:29;;;;;;;7.80;3.47;;;;;;;;;;4910687;29;20195;-67
2023/08/15 12:16:13;;;;;;;6.23;4.00;;;;;;;;;;4891310;29;20325;-67
2023/08/15 12:18:41;;;;;;;6.90;3.63;;;;;;;;;;4891246;29;20606;-67
2023/08/15 12:21:12;;;;;;;4.90;3.73;;;;;;;;;;4911889;29;20206;-67
2023/08/15 12:23:40;;;;;;;7.70;4.33;;;;;;;;;;4922094;29;20214;-67
2023/08/15 12:26:06;;;;;;;4.20;3.47;;;;;;;;;;4918301;29;20199;-67
2023/08/15 12:28:50;;;;;;;5.27;3.70;;;;;;;;;;4901305;29;20184;-67
2023/08/15 12:31:19;;;;;;;10.93;4.07;;;;;;;;;;4913669;29;20625;-67
2023/08/15 12:33:47;;;;;;;5.47;3.43;;;;;;;;;;4909032;29;20301;-67
2023/08/15 12:36:14;;;;;;;4.60;3.73;;;;;;;;;;4929946;29;20285;-66
2023/08/15 12:38:42;;;;;;;5.97;3.67;;;;;;;;;;4909262;29;20204;-68
2023/08/15 12:41:26;;;;;;;5.13;3.80;;;;;;;;;;4885608;29;20191;-70
2023/08/15 12:43:54;;;;;;;5.50;3.80;;;;;;;;;;4911232;29;20590;-69
2023/08/15 12:46:21;;;;;;;5.87;3.77;;;;;;;;;;4918392;29;20320;-68
2023/08/15 12:48:48;;;;;;;6.53;3.60;;;;;;;;;;4911295;29;20674;-67
2023/08/15 12:51:15;;;;;;;5.33;3.77;;;;;;;;;;4912774;29;20705;-67
2023/08/15 12:53:42;;;;;;;6.37;5.03;;;;;;;;;;4932620;29;20246;-66
2023/08/15 12:56:09;;;;;;;4.73;3.90;;;;;;;;;;4908048;29;20191;-68
2023/08/15 12:58:37;;;;;;;5.53;3.60;;;;;;;;;;4918506;29;20329;-67
2023/08/15 13:01:04;;;;;;;6.50;4.00;;;;;;;;;;4911462;29;20199;-67
2023/08/15 13:03:31;;;;;;;6.27;3.63;;;;;;;;;;4895324;29;20218;-67
2023/08/15 13:05:58;;;;;;;4.77;3.93;;;;;;;;;;4908985;29;20223;-67
2023/08/15 13:08:25;;;;;;;4.80;3.63;;;;;;;;;;4912002;29;20239;-67
2023/08/15 13:10:52;;;;;;;5.70;3.90;;;;;;;;;;4911903;29;20291;-67
2023/08/15 13:13:19;;;;;;;6.87;4.07;;;;;;;;;;4914177;29;20254;-66
2023/08/15 13:15:46;;;;;;;5.03;3.57;;;;;;;;;;4913877;29;20199;-68
2023/08/15 13:18:13;;;;;;;6.33;3.70;;;;;;;;;;4910836;29;20203;-68
2023/08/15 13:20:40;;;;;;;6.90;3.90;;;;;;;;;;4904443;29;20191;-67
2023/08/15 13:23:07;;;;;;;4.63;3.50;;;;;;;;;;4922721;29;20311;-67
2023/08/15 13:25:34;;;;;;;4.77;3.77;;;;;;;;;;4906598;29;20738;-66
2023/08/15 13:28:01;;;;;;;4.80;3.80;;;;;;;;;;4901618;29;20254;-67
2023/08/15 13:30:28;;;;;;;4.33;3.70;;;;;;;;;;4914078;29;20694;-67
2023/08/15 13:32:55;;;;;;;4.60;3.67;;;;;;;;;;4913276;29;20199;-68
2023/08/15 13:35:22;;;;;;;4.87;3.90;;;;;;;;;;4912733;29;20203;-67
2023/08/15 13:37:49;;;;;;;6.03;3.53;;;;;;;;;;4912469;29;20192;-67
2023/08/15 13:40:16;;;;;;;6.03;3.83;;;;;;;;;;4911301;29;20199;-68
2023/08/15 13:42:43;;;;;;;6.87;6.17;;;;;;;;;;4892659;29;20266;-69
2023/08/15 13:45:11;;;;;;;5.80;3.90;;;;;;;;;;4912263;29;20222;-67
2023/08/15 13:47:38;;;;;;;5.00;3.90;;;;;;;;;;4913476;29;20198;-68
2023/08/15 13:50:06;;;;;;;4.87;3.90;;;;;;;;;;4896382;29;20191;-69
2023/08/15 13:52:51;;;;;;;7.90;3.63;;;;;;;;;;4906084;29;20194;-68
2023/08/15 13:55:20;;;;;;;6.93;4.30;;;;;;;;;;4887063;29;20283;-67
2023/08/15 13:57:47;;;;;;;6.20;3.73;;;;;;;;;;4896159;29;20670;-68
2023/08/15 14:00:14;;;;;;;5.33;3.60;;;;;;;;;;4912999;29;20555;-67
2023/08/15 14:02:41;;;;;;;4.30;3.90;;;;;;;;;;4912182;29;20717;-68
2023/08/15 14:05:08;;;;;;;8.07;5.03;;;;;;;;;;4913362;29;20234;-67
2023/08/15 14:07:35;;;;;;;7.33;4.07;;;;;;;;;;4913254;29;20195;-67
2023/08/15 14:10:03;;;;;;;5.50;4.00;;;;;;;;;;4912751;29;20250;-67
2023/08/15 14:12:29;;;;;;;5.57;4.07;;;;;;;;;;4913200;29;20194;-66
2023/08/15 14:14:56;;;;;;;4.57;3.90;;;;;;;;;;4911193;29;20202;-66
2023/08/15 14:17:23;;;;;;;6.03;3.87;;;;;;;;;;4912768;29;20196;-66
2023/08/15 14:19:50;;;;;;;4.50;4.10;;;;;;;;;;4913038;29;20282;-66
2023/08/15 14:22:16;;;;;;;5.10;3.90;;;;;;;;;;4917970;29;20191;-65
2023/08/15 14:24:47;;;;;;;5.20;4.10;;;;;;;;;;4916672;29;20274;-67
2023/08/15 14:27:14;;;;;;;7.17;4.20;;;;;;;;;;4912743;29;20203;-68
2023/08/15 14:29:43;;;;;;;5.47;4.00;;;;;;;;;;4905855;28;20223;-68
2023/08/15 14:32:10;;;;;;;6.03;4.03;;;;;;;;;;4894519;29;20192;-67
2023/08/15 14:34:37;;;;;;;7.40;4.70;;;;;;;;;;4912806;29;20191;-66
2023/08/15 14:37:04;;;;;;;7.00;4.47;;;;;;;;;;4913052;29;20219;-68
2023/08/15 14:39:31;;;;;;;6.63;4.40;;;;;;;;;;4912225;29;20223;-69
2023/08/15 14:41:58;;;;;;;5.03;4.10;;;;;;;;;;4912705;29;20202;-69
2023/08/15 14:44:24;;;;;;;7.80;4.27;;;;;;;;;;4895201;29;20745;-71
2023/08/15 14:46:54;;;;;;;6.17;4.60;;;;;;;;;;4911502;29;20204;-70
2023/08/15 14:49:38;;;;;;;6.87;4.17;;;;;;;;;;4886510;29;20176;-71
2023/08/15 14:52:09;;;;;;;7.43;4.43;;;;;;;;;;4912762;29;20200;-71
2023/08/15 14:54:36;;;;;;;6.63;4.30;;;;;;;;;;4912214;29;20226;-70
2023/08/15 14:57:03;;;;;;;6.60;4.40;;;;;;;;;;4895477;29;20199;-70
2023/08/15 14:59:30;;;;;;;5.13;4.40;;;;;;;;;;4912596;29;20224;-69
2023/08/15 15:01:57;;;;;;;5.20;4.63;;;;;;;;;;4912472;29;20192;-71
2023/08/15 15:04:24;;;;;;;7.57;4.47;;;;;;;;;;4910050;29;20575;-70
2023/08/15 15:06:51;;;;;;;6.90;4.87;;;;;;;;;;4912231;29;20199;-70
2023/08/15 15:09:19;;;;;;;5.83;4.23;;;;;;;;;;4912214;29;20717;-70
2023/08/15 15:11:47;;;;;;;5.57;4.67;;;;;;;;;;4911822;29;20231;-70
2023/08/15 15:14:14;;;;;;;7.33;4.97;;;;;;;;;;4911808;29;20276;-70
2023/08/15 15:16:43;;;;;;;8.20;5.17;;;;;;;;;;4911261;29;20686;-69
2023/08/15 15:19:10;;;;;;;6.17;5.00;;;;;;;;;;4912123;29;20195;-70
2023/08/15 15:21:37;;;;;;;5.13;4.30;;;;;;;;;;4910285;29;20259;-71